createdAt,value
2024-01-07T00:02:53.478Z,102358.88
2024-01-07T00:08:13.982Z,102360.72
2024-01-07T00:13:34.667Z,102377.63
2024-01-07T00:18:55.419Z,102388.47
2024-01-07T00:24:16.121Z,102393.66
2024-01-07T00:29:36.709Z,102397.09
2024-01-07T00:34:57.421Z,102390.88
2024-01-07T00:40:18.206Z,102397.09
2024-01-07T00:45:38.595Z,102400.69
2024-01-07T00:50:59.199Z,102406.94
2024-01-07T00:56:19.807Z,102402.53
2024-01-07T01:01:40.603Z,102403.53
2024-01-07T01:07:01.086Z,102416.03
2024-01-07T01:12:21.614Z,102417.00
2024-01-07T01:17:42.310Z,102412.72
2024-01-07T01:23:02.956Z,102422.50
2024-01-07T01:28:23.193Z,102433.19
2024-01-07T01:33:44.043Z,102437.69
2024-01-07T01:39:04.540Z,102446.69
2024-01-07T01:44:24.984Z,102448.59
2024-01-07T01:49:46.989Z,102453.94
2024-01-07T01:55:08.004Z,102456.63
2024-01-07T02:00:28.841Z,102461.03
2024-01-07T02:05:50.903Z,102465.47
2024-01-07T02:11:22.246Z,102470.00
2024-01-07T02:16:42.744Z,102476.13
2024-01-07T02:22:04.569Z,102477.84
2024-01-07T02:27:25.334Z,102480.53
2024-01-07T02:32:47.216Z,102487.66
2024-01-07T02:38:07.421Z,102486.78
2024-01-07T02:43:28.342Z,102488.59
2024-01-07T02:48:48.915Z,102487.72
2024-01-07T02:54:09.648Z,102493.97
2024-01-07T02:59:30.083Z,102504.59
2024-01-07T03:04:50.678Z,102506.38
2024-01-07T03:10:11.446Z,102507.25
2024-01-07T03:15:33.082Z,102526.69
2024-01-07T03:20:53.574Z,102528.41
2024-01-07T03:26:14.721Z,102538.94
2024-01-07T03:31:35.444Z,102544.16
2024-01-07T03:36:56.437Z,102545.84
2024-01-07T03:42:16.893Z,102550.22
2024-01-07T03:47:37.413Z,102567.06
2024-01-07T03:52:57.759Z,102571.66
2024-01-07T03:58:18.617Z,102580.66
2024-01-07T04:03:39.412Z,102574.59
2024-01-07T04:09:00.219Z,102580.75
2024-01-07T04:14:20.860Z,102590.50
2024-01-07T04:19:41.520Z,102594.16
2024-01-07T04:25:02.147Z,102601.41
2024-01-07T04:30:22.562Z,102594.44
2024-01-07T04:35:44.769Z,102603.31
2024-01-07T04:41:08.285Z,102615.78
2024-01-07T04:46:29.084Z,102622.94
2024-01-07T04:51:50.008Z,102628.34
2024-01-07T04:57:10.778Z,102626.63
2024-01-07T05:02:31.309Z,102631.94
2024-01-07T05:07:52.192Z,102631.16
2024-01-07T05:13:13.087Z,102636.53
2024-01-07T05:18:33.764Z,102649.03
2024-01-07T05:23:54.201Z,102654.41
2024-01-07T05:29:14.842Z,102667.66
2024-01-07T05:34:35.688Z,102674.81
2024-01-07T05:39:56.210Z,102683.63
2024-01-07T05:45:16.833Z,102675.69
2024-01-07T05:50:37.497Z,102679.28
2024-01-07T05:55:57.978Z,102681.09
2024-01-07T06:01:21.980Z,102681.16
2024-01-07T06:06:42.485Z,102704.44
2024-01-07T06:12:03.159Z,102713.97
2024-01-07T06:17:23.831Z,102713.91
2024-01-07T06:22:44.474Z,102725.44
2024-01-07T06:28:05.246Z,102726.38
2024-01-07T06:33:26.217Z,102740.59
2024-01-07T06:38:47.129Z,102741.53
2024-01-07T06:44:07.770Z,102743.38
2024-01-07T06:49:28.700Z,102748.84
2024-01-07T06:54:49.198Z,102753.38
2024-01-07T07:00:10.573Z,102764.91
2024-01-07T07:05:31.393Z,102770.19
2024-01-07T07:10:52.042Z,102778.16
2024-01-07T07:16:13.406Z,102776.38
2024-01-07T07:21:34.404Z,102787.94
2024-01-07T07:26:54.894Z,102795.00
2024-01-07T07:32:15.860Z,102801.22
2024-01-07T07:37:36.336Z,102806.50
2024-01-07T07:42:57.097Z,102813.59
2024-01-07T07:48:18.137Z,102813.53
2024-01-07T07:53:40.907Z,102820.53
2024-01-07T07:59:01.646Z,102827.56
2024-01-07T08:04:22.191Z,102830.97
2024-01-07T08:09:42.682Z,102837.06
2024-01-07T08:15:03.616Z,102836.94
2024-01-07T08:20:24.562Z,102843.88
2024-01-07T08:25:46.482Z,102851.03
2024-01-07T08:31:08.214Z,102856.28
2024-01-07T08:36:28.961Z,102857.09
2024-01-07T08:41:49.758Z,102861.22
2024-01-07T08:47:10.441Z,102861.16
2024-01-07T08:52:31.211Z,102868.09
2024-01-07T08:57:52.965Z,102878.56
2024-01-07T09:03:13.699Z,102890.63
2024-01-07T09:08:35.369Z,102885.72
2024-01-07T09:13:55.977Z,102897.78
2024-01-07T09:19:17.023Z,102899.25
2024-01-07T09:24:37.352Z,102898.16
2024-01-07T09:29:57.904Z,102893.47
2024-01-07T09:35:18.465Z,102901.34
2024-01-07T09:40:40.629Z,102903.97
2024-01-07T09:46:01.317Z,102909.13
2024-01-07T09:51:24.115Z,102917.69
2024-01-07T09:56:56.440Z,102925.69
2024-01-07T10:02:17.919Z,102930.69
2024-01-07T10:07:39.288Z,102934.91
2024-01-07T10:12:59.888Z,102943.66
2024-01-07T10:18:20.824Z,102938.53
2024-01-07T10:23:41.515Z,102930.53
2024-01-07T10:29:02.421Z,102932.41
2024-01-07T10:34:24.920Z,102938.97
2024-01-07T10:39:45.782Z,102934.59
2024-01-07T10:45:06.981Z,102941.41
2024-01-07T10:50:28.473Z,102934.47
2024-01-07T10:56:01.070Z,102952.59
2024-01-07T11:01:25.092Z,102944.78
2024-01-07T11:07:12.177Z,102950.97
2024-01-07T11:12:33.498Z,102932.63
2024-01-07T11:17:54.289Z,102949.94
2024-01-07T11:23:29.155Z,102941.69
2024-01-07T11:28:52.878Z,102938.94
2024-01-07T11:34:50.924Z,102938.09
2024-01-07T11:40:12.940Z,102937.72
2024-01-07T11:45:33.480Z,102947.81
2024-01-07T11:50:56.174Z,102943.41
2024-01-07T11:56:17.612Z,102933.13
2024-01-07T12:01:38.372Z,102946.28
2024-01-07T12:06:59.993Z,102940.66
2024-01-07T12:12:20.790Z,102932.75
2024-01-07T12:17:42.158Z,102939.09
2024-01-07T12:23:09.813Z,102942.00
2024-01-07T12:28:30.627Z,102937.00
2024-01-07T12:33:52.430Z,102926.91
2024-01-07T12:39:12.938Z,102937.78
2024-01-07T12:44:33.644Z,102928.97
2024-01-07T12:49:54.257Z,102943.22
2024-01-07T12:55:15.123Z,102945.13
2024-01-07T13:00:36.566Z,102950.28
2024-01-07T13:05:57.250Z,102949.06
2024-01-07T13:11:18.264Z,102953.41
2024-01-07T13:16:38.480Z,102959.91
2024-01-07T13:22:02.753Z,102952.84
2024-01-07T13:27:24.679Z,102966.09
2024-01-07T13:32:45.357Z,102966.38
2024-01-07T13:38:05.846Z,102965.19
2024-01-07T13:43:28.663Z,102980.63
2024-01-07T13:48:49.500Z,102971.94
2024-01-07T13:54:14.179Z,102984.94
2024-01-07T13:59:34.518Z,102995.53
2024-01-07T14:04:54.921Z,102999.56
2024-01-07T14:10:16.499Z,102998.69
2024-01-07T14:15:38.024Z,103005.34
2024-01-07T14:20:58.804Z,102999.34
2024-01-07T14:26:24.063Z,103011.69
2024-01-07T14:31:46.271Z,103019.72
2024-01-07T14:37:06.949Z,103035.91
2024-01-07T14:42:27.296Z,103041.59
2024-01-07T14:47:47.654Z,103043.03
2024-01-07T14:53:08.030Z,103056.88
2024-01-07T14:58:28.352Z,103055.88
2024-01-07T15:03:48.932Z,103063.69
2024-01-07T15:09:09.545Z,103068.59
2024-01-07T15:14:30.163Z,103073.34
2024-01-07T15:19:50.509Z,103083.56
2024-01-07T15:25:11.492Z,103083.31
2024-01-07T15:30:32.270Z,103094.44
2024-01-07T15:35:53.254Z,103090.25
2024-01-07T15:41:13.874Z,103099.41
2024-01-07T15:46:34.285Z,103096.97
2024-01-07T15:51:55.184Z,103105.28
2024-01-07T15:57:15.520Z,103104.59
2024-01-07T16:02:36.065Z,103110.94
2024-01-07T16:07:56.580Z,103116.53
2024-01-07T16:13:17.179Z,103109.44
2024-01-07T16:18:38.311Z,103121.84
2024-01-07T16:23:59.035Z,103122.03
2024-01-07T16:29:22.028Z,103132.75
2024-01-07T16:34:42.849Z,103137.47
2024-01-07T16:40:04.745Z,103140.34
2024-01-07T16:45:25.174Z,103152.19
2024-01-07T16:50:46.092Z,103159.56
2024-01-07T16:56:07.673Z,103162.38
2024-01-07T17:01:28.371Z,103173.25
2024-01-07T17:06:49.762Z,103177.84
2024-01-07T17:12:10.758Z,103178.94
2024-01-07T17:17:31.499Z,103188.88
2024-01-07T17:22:53.368Z,103189.00
2024-01-07T17:28:14.654Z,103189.13
2024-01-07T17:33:35.516Z,103199.88
2024-01-07T17:38:56.720Z,103213.13
2024-01-07T17:44:17.350Z,103214.81
2024-01-07T17:49:37.738Z,103215.56
2024-01-07T17:54:58.128Z,103214.59
2024-01-07T18:00:18.967Z,103220.66
2024-01-07T18:05:40.487Z,103222.34
2024-01-07T18:11:01.939Z,103230.38
2024-01-07T18:16:22.791Z,103242.13
2024-01-07T18:21:45.853Z,103245.69
2024-01-07T18:27:07.950Z,103247.47
2024-01-07T18:32:28.554Z,103256.34
2024-01-07T18:37:51.460Z,103259.88
2024-01-07T18:43:11.750Z,103254.56
2024-01-07T18:48:32.673Z,103263.53
2024-01-07T18:53:52.974Z,103269.75
2024-01-07T18:59:13.708Z,103275.09
2024-01-07T19:04:34.745Z,103265.28
2024-01-07T19:09:55.507Z,103269.81
2024-01-07T19:15:17.440Z,103282.28
2024-01-07T19:20:38.997Z,103281.56
2024-01-07T19:26:01.637Z,103290.47
2024-01-07T19:31:25.164Z,103289.66
2024-01-07T19:36:46.249Z,103298.50
2024-01-07T19:42:08.461Z,103294.81
2024-01-07T19:47:29.375Z,103291.94
2024-01-07T19:52:50.213Z,103305.97
2024-01-07T19:58:14.615Z,103299.59
2024-01-07T20:03:37.656Z,103312.75
2024-01-07T20:08:58.041Z,103296.72
2024-01-07T20:14:18.684Z,103315.50
2024-01-07T20:19:40.889Z,103336.03
2024-01-07T20:25:01.524Z,103332.56
2024-01-07T20:30:22.308Z,103336.16
2024-01-07T20:35:44.157Z,103337.91
2024-01-07T20:41:05.152Z,103350.16
2024-01-07T20:46:25.901Z,103344.78
2024-01-07T20:51:46.664Z,103353.63
2024-01-07T20:57:07.700Z,103351.00
2024-01-07T21:02:29.211Z,103349.22
2024-01-07T21:07:50.213Z,103342.97
2024-01-07T21:13:11.174Z,103356.28
2024-01-07T21:18:32.159Z,103355.34
2024-01-07T21:23:52.769Z,103360.78
2024-01-07T21:29:14.575Z,103359.03
2024-01-07T21:34:39.059Z,103362.66
2024-01-07T21:39:59.282Z,103362.94
2024-01-07T21:45:20.154Z,103376.03
2024-01-07T21:50:40.554Z,103378.81
2024-01-07T21:56:01.016Z,103371.63
2024-01-07T22:01:21.480Z,103382.25
2024-01-07T22:06:42.099Z,103385.81
2024-01-07T22:12:03.193Z,103382.28
2024-01-07T22:17:24.006Z,103382.22
2024-01-07T22:22:44.435Z,103388.44
2024-01-07T22:28:05.003Z,103405.25
2024-01-07T22:33:25.843Z,103408.69
2024-01-07T22:38:46.781Z,103410.41
2024-01-07T22:44:07.383Z,103419.97
2024-01-07T22:49:27.661Z,103421.69
2024-01-07T22:54:48.046Z,103434.88
2024-01-07T23:00:12.392Z,103432.03
2024-01-07T23:05:37.743Z,103429.25
2024-01-07T23:11:01.641Z,103442.44
2024-01-07T23:16:22.772Z,103432.56
2024-01-07T23:21:43.182Z,103427.22
2024-01-07T23:27:03.804Z,103439.56
2024-01-07T23:32:27.669Z,103445.91
2024-01-07T23:37:48.225Z,103445.25
2024-01-07T23:43:09.250Z,103440.19
2024-01-07T23:48:31.217Z,103455.34
2024-01-07T23:53:51.622Z,103455.50
2024-01-07T23:59:12.589Z,103455.59
